Latest Coastal Weather Observations for Hamilton Island

IDQ60701

Issued at 5:02 pm EST Wednesday 8 February 2023 (issued every 10 minutes, with the page automatically refreshed every 10 minutes)

About coastal observations | Map of coastal stations | Coastal observations for QLD | Marine services | Other Formats
Station Details ID: 033106 Name: HAMILTON ISLAND AIRPORT Lat: -20.37 Lon: 148.95 Height: 58.66 m
Data from the previous 72 hours. | See also: Recent months at Hamilton Island
Date/Time
EST
Wind Sea
Height
m
Swell Vis
km
Cloud Weather Temp
°C
Press
MSL
hPa
Rain since
9am
mm
Dir  Spd
kts
Gust
kts
Height
m
Period
s
Dir
08/05:00pm SE 29 33 - - - - 10 Partly cloudy - 27.2 1002.3 6.4
08/04:38pm SE 27 31 - - - - 10 Partly cloudy - 27.3 1002.3 6.4
08/04:30pm SE 27 31 - - - - 10 Partly cloudy - 27.2 1002.4 6.4
08/04:00pm SE 29 34 - - - - 10 Partly cloudy - 26.8 1002.4 6.4
08/03:59pm SE 29 35 - - - - 10 Partly cloudy - 26.9 1002.4 6.4
08/03:42pm SE 27 33 - - - - 4 Partly cloudy - 25.8 1002.5 6.0
08/03:41pm SE 27 33 - - - - 4 Partly cloudy - 25.8 1002.5 6.0
08/03:35pm SE 27 33 - - - - 6 Partly cloudy - 25.9 1002.5 6.0
08/03:30pm SE 28 33 - - - - 10 Partly cloudy - 26.5 1002.6 6.0
08/03:26pm SE 29 34 - - - - 10 Partly cloudy - 26.3 1002.5 6.0
08/03:00pm SE 31 40 - - - - 4 Cloudy Showers 26.4 1002.4 6.0
08/02:54pm SE 27 40 - - - - 5 Partly cloudy - 25.9 1002.4 6.0
08/02:30pm SE 26 31 - - - - 3 Partly cloudy - 26.0 1002.9 6.0
08/02:17pm SE 25 33 - - - - 6 Partly cloudy - 26.0 1003.0 5.8
08/02:00pm SE 26 30 - - - - 10 Partly cloudy - 26.4 1003.1 5.8
08/01:47pm SE 27 32 - - - - 10 Partly cloudy - 26.5 1003.0 5.8
08/01:35pm SE 29 36 - - - - 6 Partly cloudy - 26.3 1003.0 5.8
08/01:30pm SE 27 32 - - - - 9 Partly cloudy - 26.3 1003.2 5.8
08/01:29pm SE 27 32 - - - - 10 Partly cloudy - 26.2 1003.1 5.8
08/01:00pm SE 24 28 - - - - 4 Cloudy - 25.8 1003.8 5.0
08/12:37pm SSE 27 33 - - - - 6 Partly cloudy - 25.8 1004.0 5.0
08/12:30pm SSE 27 31 - - - - 10 Partly cloudy - 25.9 1004.2 5.0
08/12:00pm SSE 24 29 - - - - 10 Cloudy Rain 26.0 1004.5 4.8
08/11:56am SSE 25 31 - - - - 10 Partly cloudy - 25.7 1004.6 4.8
08/11:35am SE 26 31 - - - - 6 Partly cloudy - 25.2 1004.8 4.8
08/11:30am SE 24 31 - - - - 10 Partly cloudy - 25.5 1004.9 4.2
08/11:28am SE 24 28 - - - - 10 Partly cloudy - 26.0 1005.0 4.2
08/11:00am SE 26 30 - - - - 4 Partly cloudy - 25.2 1005.3 4.0
08/10:30am SE 27 33 - - - - 4 Partly cloudy - 25.6 1005.4 3.2
08/10:00am SSE 26 31 - - - - 5 Partly cloudy - 26.2 1005.5 0.0
08/09:59am SSE 26 31 - - - - 6 Partly cloudy - 26.2 1005.4 0.0
08/09:56am SSE 25 31 - - - - 9 Partly cloudy - 26.2 1005.5 0.0
08/09:30am SSE 24 28 - - - - 10 Cloudy - 26.4 1005.5 0.0
08/09:00am SSE 22 28 - - - - 10 Cloudy - 26.6 1005.6 3.0
08/08:30am SSE 23 28 - - - - 10 Cloudy - 26.6 1005.8 3.0
08/08:23am SSE 26 36 - - - - 10 Cloudy - 26.6 1005.8 3.0
08/08:00am SE 27 33 - - - - 10 Cloudy - 27.4 1005.6 3.0
08/07:30am SE 27 34 - - - - 10 Cloudy - 26.8 1005.3 3.0
08/07:00am SE 28 33 - - - - 10 Cloudy - 27.2 1004.9 3.0
08/06:30am SE 30 36 - - - - 10 Cloudy - 27.2 1004.6 3.0
08/06:00am SE 28 33 - - - - 10 Cloudy - 27.1 1004.6 3.0
08/05:30am SE 29 33 - - - - 10 Cloudy - 27.2 1004.4 3.0
08/05:00am SE 27 33 - - - - 10 Partly cloudy - 27.2 1004.3 3.0
08/04:30am SE 27 31 - - - - 10 Partly cloudy - 27.2 1004.3 3.0
08/04:00am SE 30 35 - - - - 10 Partly cloudy - 27.2 1004.4 3.0
08/03:30am SE 28 35 - - - - 10 Cloudy - 27.2 1004.5 3.0
08/03:00am SE 29 35 - - - - 10 Cloudy Recent precip. 26.9 1004.3 3.0
08/02:30am SE 28 34 - - - - 10 Partly cloudy - 27.2 1004.7 2.8
08/02:00am SE 28 33 - - - - 10 Partly cloudy - 27.5 1004.9 2.8
08/01:30am SE 29 33 - - - - 10 Partly cloudy - 27.5 1005.3 2.8
08/01:00am SE 27 33 - - - - 10 Partly cloudy - 27.6 1005.8 2.8
08/12:30am SE 28 32 - - - - 10 Partly cloudy - 27.5 1006.2 2.8
08/12:00am SE 28 35 - - - - 10 Cloudy - 27.6 1006.5 2.8
 
Date/Time
EST
Wind Sea
Height
m
Swell Vis
km
Cloud Weather Temp
°C
Press
MSL
hPa
Rain since
9am
mm
Dir  Spd
kts
Gust
kts
Height
m
Period
s
Dir
07/11:30pm SE 27 32 - - - - 10 Cloudy - 27.5 1006.6 2.8
07/11:13pm SE 29 35 - - - - 10 Partly cloudy - 27.5 1006.8 2.8
07/11:03pm SE 26 32 - - - - 10 Partly cloudy - 27.4 1007.0 2.8
07/11:00pm SE 25 30 - - - - 10 Partly cloudy - 27.1 1007.1 2.8
07/10:52pm SE 27 32 - - - - 10 Partly cloudy - 26.7 1007.2 2.8
07/10:41pm SE 27 32 - - - - 10 Partly cloudy - 27.0 1007.3 2.8
07/10:39pm SE 27 31 - - - - 10 Partly cloudy - 27.1 1007.3 2.8
07/10:30pm SE 28 36 - - - - 5 Partly cloudy - 26.8 1007.4 2.8
07/10:24pm SE 29 39 - - - - 6 Partly cloudy - 26.4 1007.3 2.4
07/10:23pm SE 29 39 - - - - 7 Partly cloudy - 26.4 1007.2 2.4
07/10:20pm SE 27 39 - - - - 10 Partly cloudy - 26.8 1007.1 2.2
07/10:13pm SE 29 37 - - - - 10 Partly cloudy - 26.7 1007.2 2.2
07/10:00pm SE 28 32 - - - - 10 Partly cloudy - 27.1 1007.2 2.0
07/09:59pm SE 27 32 - - - - 10 Partly cloudy - 27.1 1007.2 2.0
07/09:53pm SE 28 33 - - - - 10 Partly cloudy - 27.1 1007.2 2.0
07/09:37pm SE 26 35 - - - - 10 Partly cloudy - 27.0 1007.2 2.0
07/09:33pm SE 26 30 - - - - 10 Partly cloudy - 27.3 1007.3 2.0
07/09:30pm SE 26 31 - - - - 10 Partly cloudy - 27.2 1007.3 2.0
07/09:00pm SE 30 37 - - - - 10 Cloudy Showers 26.9 1007.0 1.8
07/08:53pm SE 27 32 - - - - 10 Partly cloudy - 26.7 1007.0 1.8
07/08:34pm SE 30 37 - - - - 5 Partly cloudy - 26.2 1006.7 1.8
07/08:30pm SE 27 37 - - - - 10 Partly cloudy - 27.1 1006.8 1.2
07/08:29pm SE 26 32 - - - - 10 Partly cloudy - 27.1 1006.8 1.2
07/08:28pm SE 26 32 - - - - 10 Partly cloudy - 27.0 1006.8 1.2
07/08:10pm SE 25 29 - - - - 5 Partly cloudy - 26.9 1006.8 1.2
07/08:00pm SE 24 30 - - - - 10 Partly cloudy - 27.6 1006.7 1.0
07/07:30pm SE 27 32 - - - - 10 Partly cloudy - 27.5 1006.4 1.0
07/07:26pm SE 27 33 - - - - 10 Partly cloudy - 27.5 1006.5 1.0
07/07:16pm SE 27 33 - - - - 10 Partly cloudy - 27.5 1006.3 1.0
07/07:05pm SE 27 33 - - - - 10 Partly cloudy - 27.1 1006.2 1.0
07/07:00pm SE 27 33 - - - - 10 Partly cloudy - 27.4 1005.9 1.0
07/06:30pm SE 25 31 - - - - 10 Partly cloudy - 27.6 1005.9 1.0
07/06:20pm SE 25 29 - - - - 10 Partly cloudy - 27.5 1005.9 1.0
07/06:00pm SE 27 31 - - - - 10 Cloudy - 27.5 1005.7 1.0
07/05:52pm SE 25 30 - - - - 10 Partly cloudy - 27.8 1005.6 1.0
07/05:38pm SE 23 29 - - - - 10 Partly cloudy - 27.8 1005.5 1.0
07/05:30pm SE 23 27 - - - - 10 Partly cloudy - 27.7 1005.4 1.0
07/05:00pm SE 23 27 - - - - 10 Partly cloudy - 27.6 1005.3 1.0
07/04:46pm SE 18 19 - - - - 10 Partly cloudy - 27.3 1005.5 1.0
07/04:31pm SE 21 31 - - - - 5 Partly cloudy - 26.3 1005.5 1.0
07/04:30pm SE 22 31 - - - - 6 Partly cloudy - 26.4 1005.6 1.0
07/04:25pm ESE 27 32 - - - - 10 Partly cloudy - 26.4 1005.7 1.0
07/04:06pm SE 27 32 - - - - 6 Partly cloudy - 25.7 1005.8 0.6
07/04:04pm SE 27 32 - - - - 10 Partly cloudy - 25.6 1005.8 0.6
07/04:00pm SE 27 32 - - - - 10 Partly cloudy - 25.8 1005.9 0.4
07/03:47pm SE 25 34 - - - - 6 Partly cloudy - 26.1 1005.7 0.4
07/03:44pm SE 24 34 - - - - 10 Partly cloudy - 26.6 1005.5 0.4
07/03:30pm SE 25 29 - - - - 10 Partly cloudy - 28.4 1005.5 0.4
07/03:00pm SE 23 27 - - - - 10 Partly cloudy - 29.0 1005.7 0.4
07/02:30pm SE 25 29 - - - - 10 Partly cloudy - 29.0 1006.0 0.4
07/02:00pm SE 25 29 - - - - 10 Partly cloudy - 28.8 1006.2 0.4
07/01:41pm SE 15 25 - - - - 10 Partly cloudy - 28.7 1006.5 0.4
07/01:30pm ESE 15 17 - - - - 10 Partly cloudy - 27.3 1006.6 0.4
07/01:11pm ESE 21 27 - - - - 8 Partly cloudy - 26.7 1006.7 0.4
07/01:00pm ESE 21 26 - - - - 6 Partly cloudy - 27.6 1006.7 0.4
07/12:56pm ESE 21 26 - - - - 6 Partly cloudy - 27.4 1006.6 0.4
07/12:30pm ESE 20 23 - - - - 10 Partly cloudy - 28.3 1007.0 0.4
07/12:00pm ESE 27 32 - - - - 10 Cloudy Recent precip. 27.4 1007.2 0.4
07/11:44am ESE 24 36 - - - - 10 Partly cloudy - 27.6 1006.9 0.4
07/11:42am ESE 22 33 - - - - 10 Partly cloudy - 28.1 1007.0 0.4
07/11:41am ESE 21 32 - - - - 10 Partly cloudy - 28.6 1007.2 0.4
07/11:30am ESE 27 33 - - - - 10 Partly cloudy - 27.9 1007.3 0.2
07/11:22am ESE 22 35 - - - - 10 Partly cloudy - 27.6 1007.2 0.2
07/11:20am ESE 20 35 - - - - 10 Partly cloudy - 28.2 1007.4 0.2
07/11:08am ESE 20 24 - - - - 10 Partly cloudy - 28.9 1007.7 0.2
07/11:00am ESE 20 24 - - - - 10 Partly cloudy - 28.2 1007.8 0.2
07/10:30am SE 28 32 - - - - 10 Partly cloudy - 26.9 1007.7 0.2
07/10:18am ESE 23 36 - - - - 10 Partly cloudy - 26.7 1007.5 0.2
07/10:16am ESE 21 36 - - - - 10 Partly cloudy - 27.8 1007.8 0.2
07/10:00am SE 19 22 - - - - 10 Partly cloudy - 28.2 1007.9 0.2
07/09:51am SE 22 25 - - - - 10 Partly cloudy - 28.2 1007.9 0.2
07/09:41am ESE 19 24 - - - - 10 Partly cloudy - 28.2 1008.0 0.2
07/09:32am ESE 15 20 - - - - 10 Partly cloudy - 27.6 1008.1 0.2
07/09:30am E 15 19 - - - - 10 Partly cloudy - 27.1 1008.1 0.2
07/09:09am ESE 16 20 - - - - 5 Partly cloudy - 27.0 1008.1 0.0
07/09:00am ESE 16 19 - - - - 10 Cloudy - 27.7 1008.2 11.8
07/08:30am ESE 14 16 - - - - 10 Partly cloudy - 27.6 1008.0 11.8
07/08:14am SE 15 17 - - - - 10 Partly cloudy - 26.5 1008.1 11.8
07/08:06am ESE 15 19 - - - - 9 Partly cloudy - 26.0 1008.1 11.8
07/08:00am ESE 17 21 - - - - 3 Partly cloudy - 25.7 1008.0 11.8
07/07:48am ESE 16 27 - - - - 9 Partly cloudy - 26.0 1008.0 10.8
07/07:47am ESE 15 27 - - - - 10 Partly cloudy - 26.3 1008.1 10.6
07/07:30am ESE 25 31 - - - - 2 Partly cloudy - 25.9 1007.7 10.0
07/07:23am ESE 21 31 - - - - 6 Partly cloudy - 26.0 1007.4 8.0
07/07:20am SE 18 30 - - - - 10 Partly cloudy - 26.8 1007.4 6.6
07/07:00am SE 16 19 - - - - 10 Partly cloudy - 27.7 1007.5 6.6
07/06:54am SE 17 19 - - - - 10 Partly cloudy - 27.5 1007.4 6.6
07/06:42am SE 18 22 - - - - 10 Partly cloudy - 27.7 1007.3 6.6
07/06:30am SE 17 21 - - - - 10 Partly cloudy - 27.7 1007.1 6.6
07/06:00am SE 19 21 - - - - 10 Cloudy - 27.5 1006.8 6.6
07/05:30am SE 18 21 - - - - 10 Partly cloudy - 27.5 1006.6 6.6
07/05:00am SE 15 19 - - - - 10 Partly cloudy - 27.6 1006.8 6.6
07/04:30am ESE 18 21 - - - - 10 Partly cloudy - 27.7 1006.8 6.6
07/04:00am SE 17 20 - - - - 10 Partly cloudy - 27.6 1006.6 6.6
07/03:30am ESE 16 19 - - - - 10 Partly cloudy - 27.9 1006.5 6.6
07/03:00am ESE 18 21 - - - - 10 Mostly clear - 27.7 1006.7 6.6
07/02:30am ESE 19 23 - - - - 10 Partly cloudy - 27.8 1006.6 6.6
07/02:00am ESE 20 24 - - - - 10 Partly cloudy - 27.9 1007.0 6.6
07/01:30am ESE 19 25 - - - - 10 Partly cloudy - 27.9 1007.4 6.6
07/01:00am ESE 19 23 - - - - 10 Partly cloudy - 27.8 1007.8 6.6
07/12:30am ESE 16 21 - - - - 10 Partly cloudy - 27.4 1008.1 6.6
07/12:00am SE 17 20 - - - - 10 Cloudy Rain 26.8 1008.5 6.6
 
Date/Time
EST
Wind Sea
Height
m
Swell Vis
km
Cloud Weather Temp
°C
Press
MSL
hPa
Rain since
9am
mm
Dir  Spd
kts
Gust
kts
Height
m
Period
s
Dir
06/11:32pm ESE 15 18 - - - - 10 Partly cloudy - 25.9 1008.8 6.4
06/11:30pm ESE 16 20 - - - - 10 Partly cloudy - 26.0 1008.8 6.4
06/11:02pm ESE 28 38 - - - - 4 Partly cloudy - 25.1 1009.2 3.0
06/11:00pm ESE 30 39 - - - - 5 Partly cloudy - 25.1 1009.2 2.8
06/10:59pm ESE 30 39 - - - - 6 Partly cloudy - 25.2 1009.2 2.4
06/10:51pm SE 24 39 - - - - 10 Partly cloudy - 26.3 1008.8 1.6
06/10:37pm SE 18 28 - - - - 10 Partly cloudy - 27.2 1009.0 1.4
06/10:33pm SE 15 19 - - - - 10 Partly cloudy - 27.7 1009.1 1.4
06/10:30pm ESE 14 18 - - - - 10 Partly cloudy - 27.7 1009.1 1.4
06/10:13pm ESE 15 19 - - - - 5 Partly cloudy - 27.2 1009.1 1.4
06/10:00pm SE 15 18 - - - - 10 Partly cloudy - 28.3 1009.2 0.8
06/09:30pm SE 17 19 - - - - 10 Partly cloudy - 28.2 1009.1 0.8
06/09:00pm SE 20 23 - - - - 10 Mostly clear - 28.1 1008.7 0.8
06/08:45pm SE 18 21 - - - - 10 Partly cloudy - 28.0 1008.6 0.8
06/08:30pm SE 19 22 - - - - 10 Partly cloudy - 28.1 1008.5 0.8
06/08:10pm SE 17 20 - - - - 10 Partly cloudy - 28.2 1008.4 0.8
06/08:00pm SE 17 20 - - - - 10 Partly cloudy - 28.2 1008.4 0.8
06/07:31pm SE 17 20 - - - - 10 Partly cloudy - 28.2 1008.3 0.8
06/07:30pm SE 17 20 - - - - 10 Partly cloudy - 28.2 1008.3 0.8
06/07:14pm SE 16 18 - - - - 10 Partly cloudy - 28.2 1008.2 0.8
06/07:02pm SE 15 19 - - - - 10 Partly cloudy - 28.2 1008.1 0.8
06/07:00pm ESE 16 19 - - - - 10 Partly cloudy - 28.2 1008.1 0.8
06/06:30pm SE 16 19 - - - - 10 Partly cloudy - 28.3 1007.6 0.8
06/06:19pm SE 14 17 - - - - 10 Partly cloudy - 28.3 1007.6 0.8
06/06:00pm SE 15 17 - - - - 10 Mostly clear - 28.4 1007.6 0.8
06/05:30pm ESE 14 17 - - - - 10 - - 28.7 1007.6 0.8
06/05:00pm ESE 15 18 - - - - 10 Partly cloudy - 28.9 1007.7 0.8
06/04:30pm ESE 16 19 - - - - 10 Partly cloudy - 28.8 1007.6 0.8
06/04:00pm ESE 17 20 - - - - 10 Partly cloudy - 29.3 1007.7 0.8
06/03:30pm ESE 15 18 - - - - 10 Partly cloudy - 29.4 1007.8 0.8
06/03:00pm ESE 16 19 - - - - 10 Mostly clear - 29.5 1008.0 0.8
06/02:30pm ESE 15 17 - - - - 10 Partly cloudy - 29.3 1008.3 0.8
06/02:00pm ESE 15 17 - - - - 10 Partly cloudy - 29.6 1008.5 0.8
06/01:30pm E 16 19 - - - - 10 - - 29.4 1008.7 0.8
06/01:00pm ESE 17 19 - - - - 10 Partly cloudy - 29.6 1008.8 0.8
06/12:30pm ESE 17 19 - - - - 10 Partly cloudy - 29.6 1009.2 0.8
06/12:00pm E 15 18 - - - - 10 Mostly clear Recent precip. 29.5 1009.5 0.8
06/11:30am ESE 14 17 - - - - 10 Partly cloudy - 29.2 1009.8 0.8
06/11:00am ESE 16 18 - - - - 10 Partly cloudy - 29.1 1010.0 0.6
06/10:30am ESE 18 21 - - - - 10 Partly cloudy - 29.0 1010.1 0.6
06/10:23am ESE 19 21 - - - - 10 Partly cloudy - 28.7 1010.2 0.6
06/10:21am ESE 19 21 - - - - 10 Partly cloudy - 28.8 1010.1 0.6
06/10:09am ESE 17 22 - - - - 6 Partly cloudy - 27.9 1010.4 0.6
06/10:06am ESE 16 22 - - - - 6 Partly cloudy - 27.5 1010.4 0.6
06/10:00am ESE 14 18 - - - - 10 Partly cloudy - 28.2 1010.4 0.0
06/09:44am ESE 18 21 - - - - 10 Partly cloudy - 29.2 1010.2 0.0
06/09:30am ESE 17 20 - - - - 10 Partly cloudy - 29.1 1010.3 0.0
06/09:08am ESE 15 19 - - - - 10 Partly cloudy - 29.2 1010.6 0.0
06/09:00am ESE 14 18 - - - - 10 Cloudy - 29.3 1010.6 26.8
06/08:46am ESE 13 17 - - - - 10 Partly cloudy - 29.3 1010.5 26.8
06/08:30am ESE 13 16 - - - - 10 Partly cloudy - 28.2 1010.5 26.8
06/08:03am ESE 14 18 - - - - 10 Partly cloudy - 27.8 1010.4 26.8
06/08:00am ESE 13 17 - - - - 10 Partly cloudy - 27.9 1010.4 26.8
06/07:34am ESE 9 13 - - - - 7 Partly cloudy - 26.4 1010.0 26.6
06/07:30am ESE 9 11 - - - - 3 Partly cloudy - 25.8 1010.0 26.6
06/07:05am E 16 28 - - - - 6 Partly cloudy - 26.0 1009.8 18.6
06/07:00am ENE 13 16 - - - - 1 Partly cloudy - 26.2 1009.8 17.4
06/06:42am ESE 10 19 - - - - 5 Partly cloudy - 26.5 1009.7 15.4
06/06:34am SE 8 11 - - - - 10 Partly cloudy - 26.8 1009.7 13.8
06/06:30am ESE 9 11 - - - - 10 Partly cloudy - 26.8 1009.7 13.0
06/06:11am ESE 13 15 - - - - 10 Partly cloudy - 26.7 1009.3 12.8
06/06:00am ESE 11 13 - - - - 4 Cloudy Showers 25.9 1008.9 12.8
06/05:58am ESE 12 19 - - - - 3 Partly cloudy - 25.7 1008.9 12.8
06/05:39am E 22 31 - - - - 1 Partly cloudy - 25.4 1008.6 9.6
06/05:32am ESE 22 31 - - - - 6 Partly cloudy - 26.0 1008.5 4.0
06/05:30am ESE 19 31 - - - - 10 Partly cloudy - 26.5 1008.5 2.8
06/05:03am SE 16 20 - - - - 10 Partly cloudy - 27.6 1008.3 2.0
06/05:00am SE 15 20 - - - - 10 Partly cloudy - 27.6 1008.2 2.0
06/04:30am ESE 12 15 - - - - 10 Partly cloudy - 27.2 1008.2 2.0
06/04:00am SE 15 17 - - - - 10 Partly cloudy - 27.7 1008.0 2.0
06/03:30am ESE 15 17 - - - - 10 Partly cloudy - 27.9 1008.1 2.0
06/03:00am ESE 14 17 - - - - 10 Partly cloudy - 27.9 1008.1 2.0
06/02:30am ESE 14 17 - - - - 10 Partly cloudy - 27.9 1008.1 2.0
06/02:00am ESE 16 19 - - - - 10 Partly cloudy - 27.9 1008.0 2.0
06/01:30am ESE 14 17 - - - - 10 Partly cloudy - 28.0 1008.3 2.0
06/01:27am ESE 14 17 - - - - 10 Partly cloudy - 27.9 1008.3 2.0
06/01:00am ESE 16 19 - - - - 10 Partly cloudy - 28.1 1008.8 2.0
06/12:30am ESE 16 19 - - - - 10 Partly cloudy - 28.2 1009.0 2.0
06/12:23am ESE 15 17 - - - - 10 Partly cloudy - 28.2 1009.1 2.0
06/12:00am E 17 19 - - - - 10 Partly cloudy - 28.3 1009.3 2.0
 
Date/Time
EST
Wind Sea
Height
m
Swell Vis
km
Cloud Weather Temp
°C
Press
MSL
hPa
Rain since
9am
mm
Dir  Spd
kts
Gust
kts
Height
m
Period
s
Dir
05/11:58pm E 17 19 - - - - 10 Partly cloudy - 28.3 1009.2 2.0
05/11:41pm ESE 17 19 - - - - 10 Partly cloudy - 28.2 1009.3 2.0
05/11:30pm ESE 16 18 - - - - 10 Partly cloudy - 28.3 1009.4 2.0
05/11:00pm ESE 16 18 - - - - 10 Partly cloudy - 28.3 1009.6 2.0
05/10:33pm E 17 19 - - - - 10 Partly cloudy - 28.4 1009.4 2.0
05/10:30pm E 17 20 - - - - 10 Partly cloudy - 28.3 1009.5 2.0
05/10:07pm E 17 19 - - - - 10 Partly cloudy - 28.4 1009.3 2.0
05/10:00pm E 17 19 - - - - 10 Partly cloudy - 28.4 1009.3 2.0
05/09:30pm E 16 19 - - - - 10 Partly cloudy - 28.5 1009.2 2.0
05/09:19pm E 16 18 - - - - 10 Partly cloudy - 28.5 1009.2 2.0
05/09:07pm E 16 19 - - - - 10 Partly cloudy - 28.5 1009.0 2.0
05/09:04pm E 16 19 - - - - 10 Partly cloudy - 28.5 1008.9 2.0
05/09:00pm E 17 20 - - - - 10 Partly cloudy - 28.5 1008.9 2.0
05/08:30pm E 17 21 - - - - 10 Partly cloudy - 28.5 1008.7 2.0
05/08:05pm E 20 22 - - - - 10 Partly cloudy - 28.5 1008.4 2.0
05/08:00pm E 20 22 - - - - 10 Partly cloudy - 28.5 1008.2 2.0
05/07:30pm E 21 24 - - - - 10 Partly cloudy - 28.6 1007.8 2.0
05/07:14pm E 20 23 - - - - 10 Partly cloudy - 28.6 1007.6 2.0
05/07:00pm ESE 20 22 - - - - 10 Partly cloudy - 28.5 1007.4 2.0
05/06:41pm ESE 19 21 - - - - 10 Partly cloudy - 28.5 1007.3 2.0
05/06:30pm ESE 17 21 - - - - 10 Partly cloudy - 28.4 1007.2 2.0
05/06:27pm ESE 18 21 - - - - 10 Partly cloudy - 28.5 1007.1 2.0
05/06:00pm ESE 17 19 - - - - 10 Cloudy Rain 28.4 1006.8 2.0
05/05:47pm E 14 19 - - - - 10 Partly cloudy - 28.4 1006.7 2.0
05/05:33pm E 14 18 - - - - 10 Partly cloudy - 28.0 1006.7 2.0
05/05:30pm E 15 19 - - - - 10 Partly cloudy - 28.0 1006.7 2.0
05/05:12pm E 18 22 - - - - 5 Partly cloudy - 28.1 1006.7 0.2

Other formats

Comma delimited format used in spreadsheet applications
http://www.bom.gov.au/fwo/IDQ60701/IDQ60701.94368.axf

JavaScript Object Notation format (JSON) in row-major order
http://www.bom.gov.au/fwo/IDQ60701/IDQ60701.94368.json

Data quality

Most of these data are generated automatically and are frequently updated. Quality checks on data are not normally performed. It is possible for incorrect values to appear. Refer to information at About Latest Weather Observations and please check the disclaimer before using these data.